Time;durP1;ratioP1;P1;durP2;ratioP2;P2;SDS_P1;SDS_P2;PMS_P1;PMS_P2;Temp;Humidity;BMP_temperature;BMP_pressure;BME280_temperature;BME280_humidity;BME280_pressure;Samples;Min_cycle;Max_cycle;Signal;HPM_P1;HPM_P2
2021/06/21 00:01:56;;;;;;;13.10;6.57;;;16.20;99.90;;;;;;4401293;32;20151;-60
2021/06/21 00:04:23;;;;;;;12.77;6.77;;;16.20;99.90;;;;;;4400775;32;20517;-60
2021/06/21 00:06:50;;;;;;;9.13;6.20;;;16.10;99.90;;;;;;4399354;32;20242;-61
2021/06/21 00:09:18;;;;;;;10.60;6.30;;;16.10;99.90;;;;;;4403482;32;20179;-60
2021/06/21 00:11:45;;;;;;;11.70;5.80;;;16.10;99.90;;;;;;4402245;32;20181;-61
2021/06/21 00:14:12;;;;;;;10.60;5.87;;;16.00;99.90;;;;;;4403084;32;20182;-58
2021/06/21 00:16:38;;;;;;;9.20;5.37;;;16.10;99.90;;;;;;4396799;32;20187;-61
2021/06/21 00:19:05;;;;;;;10.63;6.07;;;16.10;99.90;;;;;;4396045;32;20173;-60
2021/06/21 00:21:32;;;;;;;8.57;5.90;;;16.00;99.90;;;;;;4399749;32;20151;-61
2021/06/21 00:23:59;;;;;;;8.90;5.93;;;16.00;99.90;;;;;;4404966;32;20219;-57
2021/06/21 00:26:27;;;;;;;9.93;6.03;;;16.00;99.90;;;;;;4397038;32;20168;-61
2021/06/21 00:28:54;;;;;;;11.07;6.40;;;16.00;99.90;;;;;;4392179;32;20167;-61
2021/06/21 00:31:21;;;;;;;7.53;5.93;;;16.00;99.90;;;;;;4401591;32;20174;-58
2021/06/21 00:33:48;;;;;;;9.00;5.60;;;16.00;99.90;;;;;;4400715;32;20160;-58
2021/06/21 00:36:14;;;;;;;9.47;6.57;;;16.10;99.90;;;;;;4396504;32;20492;-58
2021/06/21 00:38:41;;;;;;;12.43;6.10;;;16.10;99.90;;;;;;4395255;32;20184;-60
2021/06/21 00:41:08;;;;;;;11.57;6.53;;;16.00;99.90;;;;;;4399571;32;20643;-59
2021/06/21 00:43:37;;;;;;;9.30;7.10;;;16.00;99.90;;;;;;4397931;32;20152;-60
2021/06/21 00:46:03;;;;;;;10.77;6.90;;;16.00;99.90;;;;;;4401416;32;20156;-58
2021/06/21 00:48:30;;;;;;;8.77;6.27;;;16.00;99.90;;;;;;4396752;32;20187;-59
2021/06/21 00:50:57;;;;;;;8.00;6.30;;;16.00;99.90;;;;;;4398540;32;20152;-61
2021/06/21 00:53:25;;;;;;;7.07;6.37;;;16.00;99.90;;;;;;4395243;32;20155;-59
2021/06/21 00:55:52;;;;;;;9.73;6.70;;;16.10;99.90;;;;;;4399796;32;20204;-60
2021/06/21 00:58:22;;;;;;;11.20;7.63;;;16.10;99.90;;;;;;4402541;32;20631;-60
2021/06/21 01:00:50;;;;;;;11.57;6.90;;;16.00;99.90;;;;;;4402881;32;20225;-61
2021/06/21 01:03:17;;;;;;;9.93;6.63;;;16.10;99.90;;;;;;4401675;32;20178;-61
2021/06/21 01:05:44;;;;;;;9.60;6.70;;;16.00;99.90;;;;;;4400238;32;20186;-60
2021/06/21 01:08:11;;;;;;;8.57;6.10;;;16.10;99.90;;;;;;4395845;32;20171;-60
2021/06/21 01:10:40;;;;;;;12.47;7.13;;;16.10;99.90;;;;;;4400672;32;20194;-60
2021/06/21 01:13:34;;;;;;;9.23;6.57;;;16.10;99.90;;;;;;4398961;32;20172;-60
2021/06/21 01:16:11;;;;;;;12.97;7.20;;;16.10;99.90;;;;;;4396969;32;20600;-61
2021/06/21 01:18:44;;;;;;;8.30;6.90;;;16.00;99.90;;;;;;4401970;32;20170;-60
2021/06/21 01:21:32;;;;;;;8.47;7.53;;;16.00;99.90;;;;;;4406356;32;20634;-60
2021/06/21 01:24:35;;;;;;;10.30;7.80;;;15.90;99.90;;;;;;4406050;32;20214;-60
2021/06/21 01:27:17;;;;;;;14.63;6.87;;;15.90;99.90;;;;;;4395778;32;20152;-60
2021/06/21 01:29:53;;;;;;;12.03;7.07;;;15.80;99.90;;;;;;4402871;32;20144;-59
2021/06/21 01:32:34;;;;;;;8.60;6.40;;;15.80;99.90;;;;;;4402259;32;20148;-59
2021/06/21 01:35:02;;;;;;;11.97;6.60;;;15.80;99.90;;;;;;4398894;32;20172;-60
2021/06/21 01:37:30;;;;;;;7.93;6.80;;;15.80;99.90;;;;;;4401280;32;20213;-60
2021/06/21 01:40:01;;;;;;;11.17;7.37;;;15.90;99.90;;;;;;4404634;32;20160;-60
2021/06/21 01:42:28;;;;;;;12.17;6.83;;;15.90;99.90;;;;;;4406812;32;20151;-60
2021/06/21 01:45:00;;;;;;;11.97;7.20;;;15.90;99.90;;;;;;4402629;32;20168;-59
2021/06/21 01:47:31;;;;;;;10.10;6.37;;;15.90;99.90;;;;;;4406357;32;20171;-59
2021/06/21 01:49:59;;;;;;;11.20;6.60;;;15.80;99.90;;;;;;4400617;32;20568;-61
2021/06/21 01:52:26;;;;;;;11.40;7.17;;;15.70;99.90;;;;;;4396118;32;20166;-58
2021/06/21 01:54:57;;;;;;;10.20;6.40;;;15.60;99.90;;;;;;4402846;32;20203;-59
2021/06/21 01:57:28;;;;;;;10.23;7.63;;;15.40;99.90;;;;;;4406390;32;20764;-60
2021/06/21 01:59:56;;;;;;;12.53;8.67;;;15.20;99.90;;;;;;4397255;32;20171;-59
2021/06/21 02:02:25;;;;;;;13.83;9.03;;;15.00;99.90;;;;;;4402418;32;20217;-59
2021/06/21 02:04:55;;;;;;;11.23;8.90;;;14.80;99.90;;;;;;4400275;32;20171;-61
2021/06/21 02:07:24;;;;;;;14.10;9.63;;;14.80;99.90;;;;;;4407029;32;20147;-60
2021/06/21 02:09:52;;;;;;;17.17;9.83;;;14.70;99.90;;;;;;4399488;32;20170;-62
2021/06/21 02:12:20;;;;;;;16.53;10.43;;;14.60;99.90;;;;;;4398304;32;20179;-61
2021/06/21 02:14:50;;;;;;;14.07;10.00;;;14.70;99.90;;;;;;4399947;32;20505;-62
2021/06/21 02:17:17;;;;;;;16.43;10.53;;;14.60;99.90;;;;;;4394784;32;20598;-62
2021/06/21 02:19:45;;;;;;;21.83;10.67;;;14.60;99.90;;;;;;4408354;32;20152;-61
2021/06/21 02:22:13;;;;;;;14.83;9.97;;;14.50;99.90;;;;;;4398469;32;20167;-62
2021/06/21 02:24:41;;;;;;;18.10;10.40;;;14.40;99.90;;;;;;4403596;32;20178;-62
2021/06/21 02:27:10;;;;;;;19.70;10.17;;;14.40;99.90;;;;;;4396944;32;20627;-61
2021/06/21 02:29:38;;;;;;;16.07;10.97;;;14.40;99.90;;;;;;4406184;32;20172;-60
2021/06/21 02:32:06;;;;;;;19.57;10.63;;;14.30;99.90;;;;;;4399859;32;20179;-62
2021/06/21 02:34:33;;;;;;;21.57;10.67;;;14.30;99.90;;;;;;4398435;32;20210;-62
2021/06/21 02:37:02;;;;;;;16.33;11.50;;;14.30;99.90;;;;;;4406377;32;20655;-61
2021/06/21 02:39:33;;;;;;;16.03;10.73;;;14.30;99.90;;;;;;4406901;32;20486;-61
2021/06/21 02:42:00;;;;;;;16.50;10.97;;;14.20;99.90;;;;;;4402430;32;20214;-64
2021/06/21 02:44:27;;;;;;;20.33;12.20;;;14.30;99.90;;;;;;4396347;32;20156;-63
2021/06/21 02:46:54;;;;;;;19.93;11.87;;;14.30;99.90;;;;;;4394469;32;20179;-61
2021/06/21 02:49:21;;;;;;;17.57;11.00;;;14.30;99.90;;;;;;4406259;32;20190;-63
2021/06/21 02:51:53;;;;;;;16.97;10.80;;;14.30;99.90;;;;;;4398461;32;20155;-61
2021/06/21 02:54:27;;;;;;;21.90;11.60;;;14.30;99.90;;;;;;4397267;32;20211;-64
2021/06/21 02:57:09;;;;;;;16.73;11.67;;;14.30;99.90;;;;;;4405008;32;20162;-63
2021/06/21 02:59:38;;;;;;;15.67;11.30;;;14.30;99.90;;;;;;4395020;32;20175;-64
2021/06/21 03:02:09;;;;;;;16.03;11.23;;;14.30;99.90;;;;;;4403832;32;20185;-64
2021/06/21 03:04:39;;;;;;;17.87;11.03;;;14.30;99.90;;;;;;4399460;32;20179;-63
2021/06/21 03:07:08;;;;;;;17.00;10.10;;;14.20;99.90;;;;;;4404018;32;20178;-63
2021/06/21 03:09:38;;;;;;;19.47;11.00;;;14.20;99.90;;;;;;4398314;32;20172;-61
2021/06/21 03:12:08;;;;;;;13.87;10.30;;;14.20;99.90;;;;;;4405400;32;20182;-62
2021/06/21 03:14:35;;;;;;;18.40;10.77;;;14.20;99.90;;;;;;4400164;32;20229;-64
2021/06/21 03:17:06;;;;;;;16.13;10.70;;;14.20;99.90;;;;;;4394622;32;20151;-62
2021/06/21 03:19:34;;;;;;;14.83;10.00;;;14.20;99.90;;;;;;4394532;32;20209;-62
2021/06/21 03:22:01;;;;;;;14.27;9.97;;;14.10;99.90;;;;;;4399302;32;20219;-62
2021/06/21 03:24:27;;;;;;;12.93;9.60;;;14.10;99.90;;;;;;4404543;32;20162;-64
2021/06/21 03:26:54;;;;;;;18.20;11.70;;;14.10;99.90;;;;;;4391699;32;20156;-63
2021/06/21 03:29:23;;;;;;;17.27;10.57;;;14.00;99.90;;;;;;4405786;32;20178;-63
2021/06/21 03:31:51;;;;;;;15.53;9.60;;;14.00;99.90;;;;;;4397578;32;20206;-63
2021/06/21 03:34:20;;;;;;;14.33;9.73;;;14.00;99.90;;;;;;4399372;32;20175;-61
2021/06/21 03:36:47;;;;;;;15.67;9.50;;;14.00;99.90;;;;;;4393991;32;20181;-63
2021/06/21 03:39:14;;;;;;;16.07;9.93;;;14.00;99.90;;;;;;4401801;32;20189;-63
2021/06/21 03:41:41;;;;;;;16.43;9.70;;;14.10;99.90;;;;;;4400676;32;20172;-64
2021/06/21 03:44:08;;;;;;;16.50;9.90;;;14.10;99.90;;;;;;4403546;32;20179;-65
2021/06/21 03:46:36;;;;;;;16.50;9.20;;;14.10;99.90;;;;;;4397791;32;20589;-62
2021/06/21 03:49:04;;;;;;;14.83;9.40;;;14.10;99.90;;;;;;4403560;32;20217;-62
2021/06/21 03:51:33;;;;;;;14.07;9.40;;;14.10;99.90;;;;;;4403940;32;20182;-63
2021/06/21 03:54:00;;;;;;;17.10;9.00;;;14.10;99.90;;;;;;4393961;32;20341;-61
2021/06/21 03:56:26;;;;;;;13.33;9.00;;;14.10;99.90;;;;;;4400662;32;20174;-62
2021/06/21 03:58:53;;;;;;;14.43;9.13;;;14.10;99.90;;;;;;4403254;32;20217;-64
2021/06/21 04:01:20;;;;;;;13.80;9.87;;;14.10;99.90;;;;;;4400785;32;20217;-63
2021/06/21 04:03:49;;;;;;;15.33;9.83;;;14.10;99.90;;;;;;4394850;32;20163;-61
2021/06/21 04:06:18;;;;;;;18.70;9.87;;;14.10;99.90;;;;;;4398127;32;20226;-62
2021/06/21 04:08:44;;;;;;;16.17;10.67;;;14.00;99.90;;;;;;4396270;32;20232;-61
2021/06/21 04:11:11;;;;;;;15.87;10.23;;;14.00;99.90;;;;;;4404285;32;20166;-63
2021/06/21 04:13:38;;;;;;;13.10;9.27;;;14.00;99.90;;;;;;4402670;32;20163;-63
2021/06/21 04:16:05;;;;;;;16.40;10.07;;;14.00;99.90;;;;;;4403096;32;20167;-63
2021/06/21 04:18:32;;;;;;;18.97;10.07;;;14.00;99.90;;;;;;4398688;32;20192;-62
2021/06/21 04:21:00;;;;;;;16.20;9.33;;;14.00;99.90;;;;;;4405026;32;20159;-62
2021/06/21 04:23:27;;;;;;;13.07;10.03;;;13.90;99.90;;;;;;4393268;32;20160;-61
2021/06/21 04:25:54;;;;;;;15.27;8.97;;;13.90;99.90;;;;;;4404747;32;20222;-61
2021/06/21 04:28:20;;;;;;;15.17;9.50;;;13.90;99.90;;;;;;4403429;32;20227;-62
2021/06/21 04:30:48;;;;;;;13.00;10.00;;;13.90;99.90;;;;;;4400258;32;20221;-63
2021/06/21 04:33:15;;;;;;;15.17;9.93;;;13.90;99.90;;;;;;4403979;32;20203;-63
2021/06/21 04:35:42;;;;;;;14.37;9.60;;;13.90;99.90;;;;;;4402459;32;20484;-63
2021/06/21 04:38:10;;;;;;;14.43;9.33;;;13.90;99.90;;;;;;4401502;32;20263;-62
2021/06/21 04:40:37;;;;;;;15.10;10.03;;;13.90;99.90;;;;;;4404885;32;20595;-63
2021/06/21 04:43:05;;;;;;;14.67;9.23;;;13.80;99.90;;;;;;4397503;32;20205;-63
2021/06/21 04:45:31;;;;;;;13.43;8.67;;;13.80;99.90;;;;;;4395263;32;20556;-61
2021/06/21 04:47:58;;;;;;;13.83;9.97;;;13.90;99.90;;;;;;4395139;32;20619;-61
2021/06/21 04:50:25;;;;;;;13.63;9.07;;;13.90;99.90;;;;;;4401579;32;20170;-62
2021/06/21 04:52:53;;;;;;;15.20;10.07;;;13.90;99.90;;;;;;4401928;32;20155;-62
2021/06/21 04:55:23;;;;;;;12.30;9.37;;;13.90;99.90;;;;;;4406794;32;20182;-62
2021/06/21 04:57:50;;;;;;;12.23;9.10;;;13.90;99.90;;;;;;4396696;32;20590;-62
2021/06/21 05:00:19;;;;;;;17.20;9.03;;;13.90;99.90;;;;;;4401399;32;20178;-64
2021/06/21 05:02:48;;;;;;;14.67;9.73;;;13.90;99.90;;;;;;4405527;32;20566;-62
2021/06/21 05:05:15;;;;;;;15.10;9.93;;;13.90;99.90;;;;;;4408604;32;20156;-62
2021/06/21 05:07:43;;;;;;;15.40;9.83;;;13.90;99.90;;;;;;4398917;32;20218;-62
2021/06/21 05:10:12;;;;;;;19.70;11.10;;;13.80;99.90;;;;;;4403256;32;20197;-63
2021/06/21 05:12:43;;;;;;;14.00;9.67;;;13.90;99.90;;;;;;4399412;32;20177;-63
2021/06/21 05:15:11;;;;;;;13.67;9.60;;;13.90;99.90;;;;;;4402841;32;20231;-64
2021/06/21 05:17:38;;;;;;;17.17;9.03;;;13.90;99.90;;;;;;4401132;32;20553;-64
2021/06/21 05:20:07;;;;;;;10.77;8.30;;;13.90;99.90;;;;;;4403890;32;20189;-63
2021/06/21 05:22:34;;;;;;;13.20;8.73;;;13.80;99.90;;;;;;4395819;32;20223;-62
2021/06/21 05:25:02;;;;;;;15.70;10.03;;;13.80;99.90;;;;;;4398840;32;20163;-62
2021/06/21 05:27:30;;;;;;;13.30;9.70;;;13.80;99.90;;;;;;4399894;32;20666;-63
2021/06/21 05:29:59;;;;;;;13.87;9.57;;;13.90;99.90;;;;;;4397322;32;20214;-61
2021/06/21 05:32:26;;;;;;;12.77;8.90;;;13.80;99.90;;;;;;4401158;32;20211;-62
2021/06/21 05:34:53;;;;;;;16.40;9.67;;;13.90;99.90;;;;;;4393332;32;20223;-64
2021/06/21 05:37:20;;;;;;;12.87;9.20;;;13.90;99.90;;;;;;4394128;32;20150;-66
2021/06/21 05:39:47;;;;;;;16.63;10.13;;;13.90;99.90;;;;;;4401946;32;20151;-62
2021/06/21 05:42:14;;;;;;;12.67;9.30;;;13.80;99.90;;;;;;4400378;32;20169;-63
2021/06/21 05:44:41;;;;;;;15.60;8.87;;;13.90;99.90;;;;;;4397160;32;20163;-62
2021/06/21 05:47:10;;;;;;;10.27;8.60;;;13.90;99.90;;;;;;4396591;32;20602;-64
2021/06/21 05:49:36;;;;;;;15.47;9.63;;;13.90;99.90;;;;;;4398521;32;20167;-63
2021/06/21 05:52:04;;;;;;;11.10;8.57;;;13.70;99.90;;;;;;4397509;32;20164;-65
2021/06/21 05:54:30;;;;;;;10.63;7.80;;;13.80;99.90;;;;;;4397831;32;20175;-65
2021/06/21 05:56:57;;;;;;;11.80;7.90;;;13.80;99.90;;;;;;4396537;32;20191;-65
2021/06/21 05:59:24;;;;;;;10.77;6.90;;;13.80;99.90;;;;;;4397762;32;20651;-64
2021/06/21 06:01:51;;;;;;;8.83;6.80;;;13.70;99.90;;;;;;4396151;32;20525;-64
2021/06/21 06:04:19;;;;;;;11.80;8.93;;;13.80;99.90;;;;;;4403082;32;20240;-64
2021/06/21 06:06:46;;;;;;;10.00;7.47;;;13.80;99.90;;;;;;4398734;32;20524;-64
2021/06/21 06:09:13;;;;;;;12.07;8.40;;;13.90;99.90;;;;;;4401006;32;20167;-63
2021/06/21 06:11:39;;;;;;;10.97;7.67;;;13.80;99.90;;;;;;4402297;32;20160;-63
2021/06/21 06:14:06;;;;;;;9.97;7.97;;;13.90;99.90;;;;;;4407955;32;20173;-63
2021/06/21 06:16:33;;;;;;;7.43;6.63;;;13.80;99.90;;;;;;4403200;32;20172;-63
2021/06/21 06:19:00;;;;;;;11.90;7.40;;;13.90;99.90;;;;;;4405048;32;20172;-62
2021/06/21 06:21:30;;;;;;;8.83;6.60;;;13.90;99.90;;;;;;4404484;32;20153;-64
2021/06/21 06:23:57;;;;;;;12.73;5.93;;;14.00;99.90;;;;;;4406291;32;20224;-62
2021/06/21 06:26:24;;;;;;;10.23;6.40;;;13.90;99.90;;;;;;4406276;32;20484;-62
2021/06/21 06:28:51;;;;;;;6.43;5.57;;;13.90;99.90;;;;;;4401583;32;20173;-62
2021/06/21 06:31:18;;;;;;;5.37;4.87;;;13.90;99.90;;;;;;4404643;32;20631;-62
2021/06/21 06:33:44;;;;;;;9.33;5.83;;;13.90;99.90;;;;;;4406292;32;20182;-64
2021/06/21 06:36:11;;;;;;;8.47;5.57;;;13.80;99.90;;;;;;4404760;32;20539;-66
2021/06/21 06:38:39;;;;;;;6.93;5.60;;;13.90;99.90;;;;;;4406247;32;20206;-63
2021/06/21 06:41:06;;;;;;;10.27;5.57;;;13.90;99.90;;;;;;4403659;32;20156;-62
2021/06/21 06:43:33;;;;;;;9.50;6.07;;;14.00;99.90;;;;;;4404593;32;20224;-65
2021/06/21 06:46:00;;;;;;;5.63;5.00;;;14.10;99.90;;;;;;4406380;32;20148;-63
2021/06/21 06:48:27;;;;;;;9.87;5.50;;;14.10;99.90;;;;;;4406847;32;20171;-63
2021/06/21 06:50:54;;;;;;;8.73;5.70;;;14.00;99.90;;;;;;4406715;32;20182;-65
2021/06/21 06:53:28;;;;;;;6.27;5.13;;;14.00;99.90;;;;;;4398574;32;20193;-62
2021/06/21 06:58:40;;;;;;;8.07;5.60;;;14.10;99.90;;;;;;4398261;32;20196;-62
2021/06/21 07:01:07;;;;;;;14.40;5.87;;;14.10;99.90;;;;;;4404455;32;20170;-63
2021/06/21 07:03:34;;;;;;;10.53;6.47;;;14.00;99.90;;;;;;4403253;32;20166;-65
2021/06/21 07:06:01;;;;;;;8.47;5.93;;;14.00;99.90;;;;;;4405612;32;20166;-63
2021/06/21 07:08:27;;;;;;;13.53;7.03;;;14.10;99.90;;;;;;4398493;32;20151;-63
2021/06/21 07:10:56;;;;;;;5.97;5.00;;;14.10;99.90;;;;;;4400098;32;20184;-63
2021/06/21 07:13:22;;;;;;;9.53;5.50;;;14.10;99.90;;;;;;4399896;32;20183;-63
2021/06/21 07:15:50;;;;;;;8.57;5.60;;;14.20;99.90;;;;;;4406464;32;20151;-64
2021/06/21 07:18:16;;;;;;;9.03;6.10;;;14.20;99.90;;;;;;4395343;32;20206;-66
2021/06/21 07:20:43;;;;;;;8.67;5.87;;;14.30;99.90;;;;;;4401523;32;20186;-63
2021/06/21 07:23:10;;;;;;;10.33;7.27;;;14.30;99.90;;;;;;4399929;32;20178;-67
2021/06/21 07:25:37;;;;;;;8.10;6.13;;;14.40;99.90;;;;;;4403626;32;20179;-63
2021/06/21 07:28:05;;;;;;;7.97;5.63;;;14.30;99.90;;;;;;4399270;32;20605;-63
2021/06/21 07:30:33;;;;;;;8.10;6.87;;;14.30;99.90;;;;;;4403014;32;20199;-64
2021/06/21 07:33:00;;;;;;;11.40;6.00;;;14.40;99.90;;;;;;4393288;32;20176;-65
2021/06/21 07:35:26;;;;;;;10.70;6.57;;;14.30;99.90;;;;;;4399921;32;20223;-66
2021/06/21 07:37:53;;;;;;;8.73;6.00;;;14.40;99.90;;;;;;4407445;32;20150;-64
2021/06/21 07:40:20;;;;;;;9.17;6.37;;;14.30;99.90;;;;;;4404740;32;20165;-63
2021/06/21 07:42:47;;;;;;;8.27;5.90;;;14.30;99.90;;;;;;4390843;32;20165;-62
2021/06/21 07:45:16;;;;;;;14.10;6.77;;;14.30;99.90;;;;;;4400091;32;20193;-63
2021/06/21 07:47:43;;;;;;;8.07;5.57;;;14.40;99.90;;;;;;4405506;32;20217;-64
2021/06/21 07:50:11;;;;;;;12.07;6.50;;;14.40;99.90;;;;;;4404953;32;20526;-63
2021/06/21 07:52:38;;;;;;;7.50;6.33;;;14.40;99.90;;;;;;4406477;32;20164;-63
2021/06/21 07:55:05;;;;;;;8.00;5.63;;;14.50;99.90;;;;;;4406558;32;20169;-64
2021/06/21 07:57:32;;;;;;;10.27;6.80;;;14.60;99.90;;;;;;4405325;32;20221;-63
2021/06/21 07:59:59;;;;;;;8.07;5.53;;;14.60;99.90;;;;;;4403520;32;20157;-64
2021/06/21 08:02:27;;;;;;;10.73;5.87;;;14.70;99.90;;;;;;4396450;32;20159;-62
2021/06/21 08:04:54;;;;;;;8.60;6.30;;;14.70;99.90;;;;;;4404810;32;20159;-62
2021/06/21 08:07:21;;;;;;;9.90;6.23;;;14.60;99.90;;;;;;4405188;32;20169;-65
2021/06/21 08:09:49;;;;;;;6.43;5.60;;;14.70;99.90;;;;;;4406153;32;20491;-65
2021/06/21 08:12:15;;;;;;;10.53;5.93;;;14.70;99.90;;;;;;4399627;32;20565;-66
2021/06/21 08:14:43;;;;;;;7.27;5.63;;;14.70;99.90;;;;;;4400871;32;20211;-62
2021/06/21 08:17:10;;;;;;;12.03;5.73;;;14.70;99.90;;;;;;4396818;32;20148;-65
2021/06/21 08:19:38;;;;;;;6.90;5.63;;;14.70;99.90;;;;;;4396065;32;20186;-64
2021/06/21 08:22:05;;;;;;;7.77;5.63;;;14.70;99.90;;;;;;4397172;32;20603;-63
2021/06/21 08:24:32;;;;;;;11.67;5.97;;;14.80;99.90;;;;;;4405623;32;20230;-64
2021/06/21 08:27:02;;;;;;;9.33;5.80;;;14.70;99.90;;;;;;4405320;32;20206;-66
2021/06/21 08:29:29;;;;;;;6.77;5.40;;;14.70;99.90;;;;;;4402099;32;20168;-64
2021/06/21 08:31:55;;;;;;;10.13;5.80;;;14.80;99.90;;;;;;4393597;32;20152;-67
2021/06/21 08:34:22;;;;;;;7.93;5.87;;;14.80;99.90;;;;;;4392416;32;20206;-67
2021/06/21 08:36:50;;;;;;;9.57;5.33;;;14.90;99.90;;;;;;4403641;32;20610;-62
2021/06/21 08:39:17;;;;;;;6.13;5.07;;;14.90;99.90;;;;;;4403924;32;20506;-65
2021/06/21 08:41:44;;;;;;;10.17;6.03;;;14.90;99.90;;;;;;4395006;32;20152;-67
2021/06/21 08:44:11;;;;;;;8.33;6.50;;;14.90;99.90;;;;;;4398417;32;20214;-66
2021/06/21 08:46:38;;;;;;;7.13;5.67;;;14.90;99.90;;;;;;4403678;32;20556;-66
2021/06/21 08:49:05;;;;;;;12.83;6.00;;;14.90;99.90;;;;;;4399628;32;20155;-65
2021/06/21 08:51:36;;;;;;;8.87;5.63;;;14.90;99.90;;;;;;4399423;32;20223;-63
2021/06/21 08:54:04;;;;;;;8.37;6.10;;;14.90;99.90;;;;;;4398962;32;20202;-64
2021/06/21 08:56:31;;;;;;;7.70;6.00;;;15.00;99.90;;;;;;4406161;32;20154;-64
2021/06/21 08:58:58;;;;;;;8.73;5.97;;;15.00;99.90;;;;;;4401713;32;20178;-64
2021/06/21 09:01:25;;;;;;;8.57;5.33;;;15.10;99.90;;;;;;4399926;32;20168;-61
2021/06/21 09:03:52;;;;;;;10.23;6.00;;;15.10;99.90;;;;;;4401572;32;20152;-60
2021/06/21 09:06:21;;;;;;;7.47;5.50;;;14.90;99.90;;;;;;4404908;32;20155;-63
2021/06/21 09:08:56;;;;;;;7.43;6.17;;;14.90;99.90;;;;;;4403169;32;20148;-63
2021/06/21 09:11:54;;;;;;;9.67;6.17;;;15.00;99.90;;;;;;4403410;32;20178;-62
2021/06/21 09:14:36;;;;;;;12.97;5.87;;;14.80;99.90;;;;;;4399442;32;20175;-61
2021/06/21 09:17:05;;;;;;;9.43;6.33;;;14.70;99.90;;;;;;4399565;32;20642;-62
2021/06/21 09:19:43;;;;;;;12.37;7.17;;;14.80;99.90;;;;;;4404012;32;20182;-62
2021/06/21 09:22:26;;;;;;;10.60;5.80;;;14.70;99.90;;;;;;4396717;32;20170;-62
2021/06/21 09:24:53;;;;;;;10.83;6.77;;;15.00;99.90;;;;;;4406901;32;20568;-62
2021/06/21 09:27:23;;;;;;;9.23;5.97;;;15.10;99.90;;;;;;4416456;32;20152;-62
2021/06/21 09:29:52;;;;;;;8.13;5.50;;;15.20;99.90;;;;;;4398084;32;20204;-62
2021/06/21 09:32:19;;;;;;;5.97;4.90;;;15.10;99.90;;;;;;4401145;32;20156;-62
2021/06/21 09:34:46;;;;;;;7.87;5.47;;;15.20;99.90;;;;;;4409204;32;20598;-63
2021/06/21 09:37:15;;;;;;;5.63;4.87;;;15.30;99.90;;;;;;4403712;32;20187;-63
2021/06/21 09:39:44;;;;;;;6.63;4.87;;;15.40;99.90;;;;;;4401328;32;20480;-63
2021/06/21 09:42:14;;;;;;;5.87;4.53;;;15.40;99.90;;;;;;4401848;32;20152;-61
2021/06/21 09:44:46;;;;;;;5.90;4.70;;;15.50;99.90;;;;;;4405236;32;20559;-62
2021/06/21 09:47:18;;;;;;;5.03;3.80;;;15.50;99.90;;;;;;4396185;32;20148;-63
2021/06/21 09:50:07;;;;;;;6.43;4.40;;;15.70;99.90;;;;;;4405104;32;20442;-60
2021/06/21 09:52:42;;;;;;;7.63;4.23;;;15.80;99.90;;;;;;4405902;32;20587;-61
2021/06/21 09:55:34;;;;;;;4.93;3.80;;;15.90;99.90;;;;;;4403169;32;20176;-62
2021/06/21 09:58:05;;;;;;;3.90;3.60;;;15.90;99.90;;;;;;4402124;32;20143;-62
2021/06/21 10:00:34;;;;;;;4.50;3.47;;;15.90;99.90;;;;;;4400260;32;20197;-62
2021/06/21 10:03:17;;;;;;;4.97;3.40;;;15.70;99.90;;;;;;4406344;32;20160;-64
2021/06/21 10:05:46;;;;;;;5.40;3.23;;;15.70;99.90;;;;;;4404020;32;20159;-67
2021/06/21 10:08:15;;;;;;;4.10;2.93;;;15.70;99.90;;;;;;4406289;32;20179;-65
2021/06/21 10:10:44;;;;;;;4.77;3.27;;;15.60;99.90;;;;;;4402941;32;20148;-63
2021/06/21 10:13:12;;;;;;;4.00;3.43;;;15.60;99.90;;;;;;4405142;32;20164;-64
2021/06/21 10:15:41;;;;;;;5.97;3.13;;;15.50;99.90;;;;;;4407003;32;20171;-65
2021/06/21 10:18:08;;;;;;;6.40;3.80;;;15.60;99.90;;;;;;4405460;32;20147;-65
2021/06/21 10:20:36;;;;;;;3.77;3.13;;;15.60;99.90;;;;;;4406039;32;20166;-63
2021/06/21 10:23:06;;;;;;;8.13;3.57;;;15.70;99.90;;;;;;4396108;32;20152;-63
2021/06/21 10:25:33;;;;;;;6.53;3.33;;;15.70;99.90;;;;;;4401000;32;20156;-66
2021/06/21 10:28:02;;;;;;;5.13;3.20;;;15.80;99.90;;;;;;4406019;32;20171;-66
2021/06/21 10:30:31;;;;;;;5.27;3.70;;;15.90;99.90;;;;;;4398456;32;20507;-63
2021/06/21 10:33:00;;;;;;;4.60;3.20;;;16.00;99.90;;;;;;4407967;32;20580;-65
2021/06/21 10:35:33;;;;;;;5.23;3.00;;;16.00;99.90;;;;;;4399529;32;20167;-64
2021/06/21 10:38:06;;;;;;;4.97;3.20;;;16.00;99.90;;;;;;4404499;32;20166;-64
2021/06/21 10:40:52;;;;;;;3.73;2.77;;;15.90;99.90;;;;;;4401288;32;20170;-66
2021/06/21 10:43:47;;;;;;;3.83;3.03;;;16.10;99.90;;;;;;4402310;32;20451;-63
2021/06/21 10:46:28;;;;;;;6.13;3.17;;;16.30;99.90;;;;;;4397645;32;20188;-65
2021/06/21 10:49:34;;;;;;;5.23;2.67;;;16.40;99.90;;;;;;4396766;32;20189;-62
2021/06/21 10:52:01;;;;;;;3.53;3.07;;;16.50;99.90;;;;;;4354917;32;20556;-63
2021/06/21 10:54:28;;;;;;;4.17;2.50;;;16.60;99.90;;;;;;4357451;32;20518;-64
2021/06/21 10:56:56;;;;;;;3.43;2.47;;;16.90;99.90;;;;;;4358966;33;20226;-61
2021/06/21 10:59:24;;;;;;;3.70;2.87;;;17.20;99.90;;;;;;4354577;32;20187;-61
2021/06/21 11:01:53;;;;;;;2.73;2.30;;;17.40;99.90;;;;;;4359876;32;20181;-65
2021/06/21 11:04:47;;;;;;;3.87;2.40;;;17.30;99.90;;;;;;4354264;32;20582;-63
2021/06/21 11:07:15;;;;;;;6.40;2.67;;;17.30;99.90;;;;;;4354548;32;20232;-61
2021/06/21 11:09:44;;;;;;;4.37;2.67;;;17.10;99.90;;;;;;4362226;32;20217;-63
2021/06/21 11:12:41;;;;;;;3.17;2.70;;;16.80;99.90;;;;;;4350870;33;20153;-62
2021/06/21 11:15:10;;;;;;;4.20;2.77;;;16.90;99.90;;;;;;4357458;33;20790;-64
2021/06/21 11:17:57;;;;;;;7.70;2.30;;;16.90;99.90;;;;;;4350132;32;20177;-63
2021/06/21 11:20:39;;;;;;;3.00;2.30;;;16.80;99.90;;;;;;4347405;33;20276;-61
2021/06/21 11:23:08;;;;;;;3.20;1.93;;;16.60;99.90;;;;;;4355170;32;20566;-61
2021/06/21 11:25:41;;;;;;;3.63;2.73;;;16.50;99.90;;;;;;4356242;33;20208;-60
2021/06/21 11:28:36;;;;;;;4.10;2.30;;;16.50;99.90;;;;;;4361762;32;20156;-61
2021/06/21 11:31:25;;;;;;;4.13;2.90;;;16.60;99.90;;;;;;4400593;32;20189;-62
2021/06/21 11:33:54;;;;;;;2.83;2.43;;;16.50;99.90;;;;;;4403095;32;157073;-64
2021/06/21 11:36:38;;;;;;;4.07;2.87;;;16.20;99.90;;;;;;4404551;32;20592;-61
2021/06/21 11:39:20;;;;;;;4.03;2.83;;;16.10;99.90;;;;;;4407793;32;20226;-62
2021/06/21 11:41:55;;;;;;;4.17;2.73;;;16.10;99.90;;;;;;4412289;32;20182;-64
2021/06/21 11:44:48;;;;;;;4.67;3.37;;;16.40;99.90;;;;;;4401648;32;20173;-63
2021/06/21 11:47:22;;;;;;;5.10;2.87;;;17.00;99.90;;;;;;4404830;32;20643;-61
2021/06/21 11:49:52;;;;;;;3.73;2.73;;;17.80;99.90;;;;;;4394174;32;20187;-63
2021/06/21 11:52:21;;;;;;;4.97;2.80;;;17.80;99.90;;;;;;4393927;32;20174;-61
2021/06/21 11:54:52;;;;;;;4.87;3.00;;;17.70;99.90;;;;;;4396628;32;20149;-61
2021/06/21 11:57:22;;;;;;;3.20;2.80;;;17.70;99.90;;;;;;4399314;32;20159;-62
2021/06/21 11:59:51;;;;;;;4.53;2.87;;;17.80;99.90;;;;;;4400912;32;20201;-61
2021/06/21 12:02:22;;;;;;;5.43;2.73;;;17.40;99.90;;;;;;4391928;32;20163;-62
2021/06/21 12:04:51;;;;;;;5.47;2.47;;;17.60;99.90;;;;;;4405151;32;20156;-61
2021/06/21 12:07:36;;;;;;;3.87;2.93;;;17.80;99.90;;;;;;4398854;32;20229;-64
2021/06/21 12:10:05;;;;;;;4.17;2.20;;;17.70;99.90;;;;;;4391593;32;20194;-64
2021/06/21 12:12:35;;;;;;;3.03;2.50;;;17.80;99.90;;;;;;4400280;32;20151;-62
2021/06/21 12:15:02;;;;;;;3.33;2.20;;;17.80;99.90;;;;;;4400938;32;20159;-60
2021/06/21 12:17:31;;;;;;;3.93;2.20;;;17.90;99.90;;;;;;4397619;32;20182;-61
2021/06/21 12:20:08;;;;;;;3.47;2.27;;;18.00;99.90;;;;;;4402755;32;20153;-63
2021/06/21 12:22:37;;;;;;;3.17;2.40;;;17.90;99.90;;;;;;4396037;32;20678;-60
2021/06/21 12:25:05;;;;;;;3.43;2.50;;;17.80;99.90;;;;;;4397286;32;20152;-63
2021/06/21 12:27:33;;;;;;;5.63;2.33;;;18.00;99.90;;;;;;4401019;32;20590;-62
2021/06/21 12:30:00;;;;;;;2.93;2.10;;;18.10;99.90;;;;;;4394106;32;20497;-60
2021/06/21 12:32:34;;;;;;;2.90;2.43;;;17.80;99.90;;;;;;4401918;32;20156;-61
2021/06/21 12:35:02;;;;;;;4.07;1.90;;;18.10;99.90;;;;;;4401232;32;20672;-61
2021/06/21 12:37:31;;;;;;;4.00;1.90;;;18.20;99.90;;;;;;4400562;32;20184;-61
2021/06/21 12:40:01;;;;;;;1.77;1.67;;;18.40;99.90;;;;;;4402806;32;20191;-61
2021/06/21 12:42:30;;;;;;;5.17;2.20;;;18.40;99.90;;;;;;4402279;32;20152;-61
2021/06/21 12:44:57;;;;;;;2.67;2.17;;;18.50;99.90;;;;;;4402272;32;20148;-61
2021/06/21 12:47:27;;;;;;;2.30;2.07;;;18.40;99.90;;;;;;4406545;32;20152;-64
2021/06/21 12:49:56;;;;;;;2.73;2.13;;;18.40;99.90;;;;;;4398300;32;20152;-60
2021/06/21 12:52:24;;;;;;;2.90;2.00;;;18.70;99.90;;;;;;4390803;32;20167;-63
2021/06/21 12:55:08;;;;;;;4.47;2.30;;;18.90;99.90;;;;;;4399417;32;20144;-60
2021/06/21 12:57:53;;;;;;;3.00;2.13;;;19.10;99.90;;;;;;4402847;32;20280;-61